Terminal Aerodrome Forecast
Issued by NWS Boston, MA

Home | Current Version | Previous Version | Text Only | Print | Product List | Glossary On
Versions: 1 2 3 4 5 6 7 8 9 10 11 12 13 14 15 16 17 18 19 20 21 22 23 24 25 26
000
FTUS41 KBOX 180540
TAFPVD
TAF
KPVD 180540Z 1806/1906 04006KT P6SM FEW250
     FM181200 04007KT P6SM BKN015
     FM181500 05006KT P6SM SCT020
     FM181800 09005KT P6SM BKN030
     FM182000 13005KT P6SM BKN200
     FM190200 20004KT P6SM SCT150=

USA.gov is the U.S. government's official web portal to all federal, state and local government web resources and services.